createdAt,value
2018-02-04T00:00:40.727Z,1013.77
2018-02-04T00:01:50.297Z,1013.77
2018-02-04T00:03:00.121Z,1013.78
2018-02-04T00:04:09.368Z,1013.75
2018-02-04T00:05:18.980Z,1013.8
2018-02-04T00:06:28.456Z,1013.81
2018-02-04T00:07:38.080Z,1013.84
2018-02-04T00:08:47.234Z,1013.86
2018-02-04T00:09:56.422Z,1013.87
2018-02-04T00:11:05.779Z,1013.89
2018-02-04T00:12:15.196Z,1013.93
2018-02-04T00:13:24.183Z,1013.94
2018-02-04T00:14:33.224Z,1013.99
2018-02-04T00:15:42.403Z,1013.97
2018-02-04T00:16:52.354Z,1013.95
2018-02-04T00:18:01.635Z,1013.92
2018-02-04T00:19:10.616Z,1013.95
2018-02-04T00:20:20.031Z,1013.99
2018-02-04T00:21:29.391Z,1014.02
2018-02-04T00:22:39.281Z,1014.03
2018-02-04T00:23:48.845Z,1014.01
2018-02-04T00:24:58.707Z,1014.03
2018-02-04T00:26:08.244Z,1014.01
2018-02-04T00:27:17.402Z,1014.04
2018-02-04T00:28:26.412Z,1014.04
2018-02-04T00:29:35.761Z,1014.06
2018-02-04T00:30:45.326Z,1014.08
2018-02-04T00:31:54.019Z,1014.07
2018-02-04T00:33:02.791Z,1014.12
2018-02-04T00:34:12.589Z,1014.15
2018-02-04T00:35:21.597Z,1014.14
2018-02-04T00:36:30.835Z,1014.16
2018-02-04T00:37:39.799Z,1014.15
2018-02-04T00:38:48.799Z,1014.19
2018-02-04T00:39:57.762Z,1014.18
2018-02-04T00:41:06.453Z,1014.17
2018-02-04T00:42:15.146Z,1014.21
2018-02-04T00:43:24.106Z,1014.22
2018-02-04T00:44:33.066Z,1014.23
2018-02-04T00:45:42.292Z,1014.21
2018-02-04T00:46:50.986Z,1014.26
2018-02-04T00:48:00.226Z,1014.26
2018-02-04T00:49:08.919Z,1014.29
2018-02-04T00:50:17.885Z,1014.3
2018-02-04T00:51:27.110Z,1014.32
2018-02-04T00:52:35.807Z,1014.33
2018-02-04T00:53:45.034Z,1014.32
2018-02-04T00:54:54.258Z,1014.33
2018-02-04T00:56:03.221Z,1014.36
2018-02-04T00:57:11.910Z,1014.39
2018-02-04T00:58:21.404Z,1014.38
2018-02-04T00:59:30.098Z,1014.39
2018-02-04T01:00:39.327Z,1014.39
2018-02-04T01:01:48.023Z,1014.44
2018-02-04T01:02:56.981Z,1014.42
2018-02-04T01:04:05.673Z,1014.37
2018-02-04T01:05:14.371Z,1014.4
2018-02-04T01:06:23.336Z,1014.4
2018-02-04T01:07:32.572Z,1014.45
2018-02-04T01:08:41.535Z,1014.45
2018-02-04T01:09:50.486Z,1014.43
2018-02-04T01:10:59.450Z,1014.55
2018-02-04T01:12:08.682Z,1014.55
2018-02-04T01:13:17.372Z,1014.56
2018-02-04T01:14:26.602Z,1014.62
2018-02-04T01:15:35.299Z,1014.58
2018-02-04T01:16:44.532Z,1014.62
2018-02-04T01:17:53.227Z,1014.67
2018-02-04T01:19:02.188Z,1014.65
2018-02-04T01:20:11.175Z,1014.67
2018-02-04T01:21:20.134Z,1014.71
2018-02-04T01:22:29.092Z,1014.74
2018-02-04T01:23:38.322Z,1014.77
2018-02-04T01:24:47.282Z,1014.78
2018-02-04T01:25:55.976Z,1014.83
2018-02-04T01:27:04.666Z,1014.84
2018-02-04T01:28:13.360Z,1014.87
2018-02-04T01:29:23.117Z,1014.89
2018-02-04T01:30:32.073Z,1014.88
2018-02-04T01:31:41.035Z,1014.9
2018-02-04T01:32:50.013Z,1014.89
2018-02-04T01:33:58.958Z,1014.85
2018-02-04T01:35:07.921Z,1014.87
2018-02-04T01:36:16.880Z,1014.86
2018-02-04T01:37:25.571Z,1014.88
2018-02-04T01:38:34.530Z,1014.85
2018-02-04T01:39:43.224Z,1014.84
2018-02-04T01:40:52.183Z,1014.85
2018-02-04T01:42:01.141Z,1014.84
2018-02-04T01:43:10.100Z,1014.87
2018-02-04T01:44:19.326Z,1014.87
2018-02-04T01:45:28.288Z,1014.87
2018-02-04T01:46:37.513Z,1014.86
2018-02-04T01:47:46.474Z,1014.9
2018-02-04T01:48:55.435Z,1014.91
2018-02-04T01:50:04.396Z,1014.97
2018-02-04T01:51:13.352Z,1015
2018-02-04T01:52:22.048Z,1015
2018-02-04T01:53:31.010Z,1015
2018-02-04T01:54:39.969Z,1015.01
2018-02-04T01:55:48.932Z,1014.99
2018-02-04T01:56:58.160Z,1015.03
2018-02-04T01:58:06.852Z,1015.02
2018-02-04T01:59:15.810Z,1015.03
2018-02-04T02:00:24.509Z,1015.03
2018-02-04T02:01:33.785Z,1015.02
2018-02-04T02:02:42.742Z,1015.04
2018-02-04T02:03:51.700Z,1015.06
2018-02-04T02:05:00.657Z,1015.03
2018-02-04T02:06:10.151Z,1015.06
2018-02-04T02:07:18.848Z,1015.05
2018-02-04T02:08:28.338Z,1015.05
2018-02-04T02:09:37.301Z,1015.08
2018-02-04T02:10:46.261Z,1015.09
2018-02-04T02:11:54.956Z,1015.06
2018-02-04T02:13:03.916Z,1015.02
2018-02-04T02:14:12.876Z,1015.01
2018-02-04T02:15:22.123Z,1015.09
2018-02-04T02:16:30.814Z,1015.03
2018-02-04T02:17:39.775Z,1015.03
2018-02-04T02:18:48.999Z,1015.04
2018-02-04T02:19:57.691Z,1015.05
2018-02-04T02:21:06.384Z,1015.07
2018-02-04T02:22:15.343Z,1015.05
2018-02-04T02:23:24.589Z,1015.06
2018-02-04T02:24:33.814Z,1015.03
2018-02-04T02:25:42.510Z,1015.03
2018-02-04T02:26:51.470Z,1015.07
2018-02-04T02:28:00.450Z,1015.07
2018-02-04T02:29:09.409Z,1015.04
2018-02-04T02:30:18.372Z,1015.08
2018-02-04T02:31:27.874Z,1015.06
2018-02-04T02:32:37.369Z,1015.12
2018-02-04T02:33:46.062Z,1015.08
2018-02-04T02:34:55.026Z,1015.04
2018-02-04T02:36:04.782Z,1015.08
2018-02-04T02:37:14.007Z,1015.1
2018-02-04T02:38:22.971Z,1015.1
2018-02-04T02:39:32.194Z,1015.1
2018-02-04T02:40:41.959Z,1015.15
2018-02-04T02:41:50.919Z,1015.13
2018-02-04T02:42:59.879Z,1015.15
2018-02-04T02:44:08.842Z,1015.13
2018-02-04T02:45:17.540Z,1015.17
2018-02-04T02:46:26.501Z,1015.17
2018-02-04T02:47:35.460Z,1015.17
2018-02-04T02:48:44.416Z,1015.18
2018-02-04T02:49:53.110Z,1015.2
2018-02-04T02:51:01.803Z,1015.2
2018-02-04T02:52:10.830Z,1015.23
2018-02-04T02:53:19.791Z,1015.25
2018-02-04T02:54:28.747Z,1015.29
2018-02-04T02:55:37.978Z,1015.26
2018-02-04T02:56:46.942Z,1015.28
2018-02-04T02:57:55.641Z,1015.26
2018-02-04T02:59:04.605Z,1015.31
2018-02-04T03:00:13.565Z,1015.27
2018-02-04T03:01:22.797Z,1015.26
2018-02-04T03:02:31.758Z,1015.27
2018-02-04T03:03:47.254Z,1015.27
2018-02-04T03:04:56.216Z,1015.26
2018-02-04T03:06:05.179Z,1015.24
2018-02-04T03:07:14.412Z,1015.22
2018-02-04T03:08:23.371Z,1015.22
2018-02-04T03:09:32.066Z,1015.2
2018-02-04T03:10:41.035Z,1015.18
2018-02-04T03:11:49.730Z,1015.23
2018-02-04T03:12:58.426Z,1015.24
2018-02-04T03:14:07.392Z,1015.24
2018-02-04T03:15:16.617Z,1015.26
2018-02-04T03:16:25.315Z,1015.27
2018-02-04T03:17:34.010Z,1015.34
2018-02-04T03:18:43.238Z,1015.33
2018-02-04T03:19:51.939Z,1015.35
2018-02-04T03:21:01.175Z,1015.33
2018-02-04T03:22:09.868Z,1015.35
2018-02-04T03:23:18.565Z,1015.36
2018-02-04T03:24:27.259Z,1015.33
2018-02-04T03:25:36.224Z,1015.37
2018-02-04T03:26:44.919Z,1015.39
2018-02-04T03:27:53.617Z,1015.42
2018-02-04T03:29:02.577Z,1015.42
2018-02-04T03:30:12.070Z,1015.4
2018-02-04T03:31:21.835Z,1015.4
2018-02-04T03:32:30.797Z,1015.38
2018-02-04T03:33:39.495Z,1015.39
2018-02-04T03:34:48.189Z,1015.39
2018-02-04T03:35:57.146Z,1015.43
2018-02-04T03:37:06.379Z,1015.46
2018-02-04T03:38:15.604Z,1015.53
2018-02-04T03:39:24.300Z,1015.62
2018-02-04T03:40:34.061Z,1015.64
2018-02-04T03:41:43.023Z,1015.72
2018-02-04T03:42:51.719Z,1015.71
2018-02-04T03:44:01.268Z,1015.7
2018-02-04T03:45:10.230Z,1015.75
2018-02-04T03:46:18.925Z,1015.79
2018-02-04T03:47:28.153Z,1015.71
2018-02-04T03:48:37.649Z,1015.73
2018-02-04T03:49:46.611Z,1015.76
2018-02-04T03:50:55.845Z,1015.73
2018-02-04T03:52:04.842Z,1015.71
2018-02-04T03:53:13.807Z,1015.72
2018-02-04T03:54:23.833Z,1015.76
2018-02-04T03:55:32.799Z,1015.72
2018-02-04T03:56:41.789Z,1015.76
2018-02-04T03:57:50.479Z,1015.79
2018-02-04T03:58:59.706Z,1015.83
2018-02-04T04:00:09.197Z,1015.82
2018-02-04T04:01:18.155Z,1015.79
2018-02-04T04:02:27.122Z,1015.83
2018-02-04T04:03:35.813Z,1015.81
2018-02-04T04:04:44.775Z,1015.83
2018-02-04T04:05:53.737Z,1015.8
2018-02-04T04:07:02.428Z,1015.88
2018-02-04T04:08:11.125Z,1015.87
2018-02-04T04:09:20.614Z,1015.85
2018-02-04T04:10:29.310Z,1015.88
2018-02-04T04:11:38.537Z,1015.92
2018-02-04T04:12:47.493Z,1015.94
2018-02-04T04:13:56.989Z,1015.99
2018-02-04T04:15:05.682Z,1015.91
2018-02-04T04:16:14.969Z,1015.94
2018-02-04T04:17:23.667Z,1015.99
2018-02-04T04:18:32.365Z,1015.96
2018-02-04T04:19:41.330Z,1016
2018-02-04T04:20:50.024Z,1016.05
2018-02-04T04:21:58.715Z,1016.04
2018-02-04T04:23:07.685Z,1016.06
2018-02-04T04:24:16.915Z,1016.16
2018-02-04T04:25:25.869Z,1016.05
2018-02-04T04:26:35.366Z,1016.12
2018-02-04T04:27:44.064Z,1016.1
2018-02-04T04:28:53.026Z,1016.14
2018-02-04T04:30:01.987Z,1016.08
2018-02-04T04:31:11.219Z,1016.09
2018-02-04T04:32:20.443Z,1016.12
2018-02-04T04:33:29.405Z,1016.05
2018-02-04T04:34:38.421Z,1016.15
2018-02-04T04:35:47.060Z,1016.16
2018-02-04T04:36:55.756Z,1016.17
2018-02-04T04:38:04.754Z,1016.14
2018-02-04T04:39:13.451Z,1016.16
2018-02-04T04:40:22.145Z,1016.24
2018-02-04T04:41:30.839Z,1016.35
2018-02-04T04:42:40.066Z,1016.38
2018-02-04T04:43:49.028Z,1016.4
2018-02-04T04:44:57.985Z,1016.34
2018-02-04T04:46:07.472Z,1016.37
2018-02-04T04:47:16.171Z,1016.34
2018-02-04T04:48:24.865Z,1016.4
2018-02-04T04:49:33.823Z,1016.44
2018-02-04T04:50:43.328Z,1016.44
2018-02-04T04:51:52.283Z,1016.69
2018-02-04T04:53:01.242Z,1016.6
2018-02-04T04:54:10.469Z,1016.46
2018-02-04T04:55:19.165Z,1016.5
2018-02-04T04:56:28.126Z,1016.57
2018-02-04T04:57:37.086Z,1016.5
2018-02-04T04:58:45.780Z,1016.54
2018-02-04T04:59:54.739Z,1016.56
2018-02-04T05:01:03.965Z,1016.51
2018-02-04T05:02:12.660Z,1016.6
2018-02-04T05:03:21.357Z,1016.61
2018-02-04T05:04:30.054Z,1016.59
2018-02-04T05:05:38.748Z,1016.6
2018-02-04T05:06:47.441Z,1016.68
2018-02-04T05:07:56.403Z,1016.73
2018-02-04T05:09:05.633Z,1016.75
2018-02-04T05:10:14.596Z,1016.86
2018-02-04T05:11:23.821Z,1016.88
2018-02-04T05:12:32.782Z,1016.85
2018-02-04T05:13:41.479Z,1016.89
2018-02-04T05:14:50.177Z,1016.88
2018-02-04T05:15:59.138Z,1016.85
2018-02-04T05:17:08.116Z,1016.81
2018-02-04T05:18:17.702Z,1016.9
2018-02-04T05:19:26.398Z,1016.99
2018-02-04T05:20:35.357Z,1017.06
2018-02-04T05:21:44.318Z,1017
2018-02-04T05:22:53.546Z,1017.05
2018-02-04T05:24:02.508Z,1017.13
2018-02-04T05:25:11.466Z,1017.17
2018-02-04T05:26:20.155Z,1017.21
2018-02-04T05:27:28.849Z,1017.2
2018-02-04T05:28:38.343Z,1017.23
2018-02-04T05:29:47.304Z,1017.17
2018-02-04T05:30:56.803Z,1017.31
2018-02-04T05:32:06.025Z,1017.33
2018-02-04T05:33:14.721Z,1017.28
2018-02-04T05:34:23.954Z,1017.34
2018-02-04T05:35:32.651Z,1017.31
2018-02-04T05:36:41.613Z,1017.34
2018-02-04T05:37:50.575Z,1017.41
2018-02-04T05:38:59.268Z,1017.36
2018-02-04T05:40:07.964Z,1017.45
2018-02-04T05:41:17.461Z,1017.49
2018-02-04T05:42:26.163Z,1017.54
2018-02-04T05:43:34.857Z,1017.5
2018-02-04T05:44:43.550Z,1017.6
2018-02-04T05:45:52.511Z,1017.62
2018-02-04T05:47:01.479Z,1017.65
2018-02-04T05:48:10.977Z,1017.67
2018-02-04T05:49:19.934Z,1017.7
2018-02-04T05:50:28.893Z,1017.7
2018-02-04T05:51:37.584Z,1017.74
2018-02-04T05:52:46.821Z,1017.79
2018-02-04T05:53:56.046Z,1017.75
2018-02-04T05:55:04.744Z,1017.74
2018-02-04T05:56:13.440Z,1017.79
2018-02-04T05:57:22.137Z,1017.81
2018-02-04T05:58:31.362Z,1017.84
2018-02-04T05:59:40.327Z,1017.82
2018-02-04T06:00:49.817Z,1017.87
2018-02-04T06:01:58.511Z,1017.94
2018-02-04T06:03:07.470Z,1017.95
2018-02-04T06:04:17.009Z,1017.96
2018-02-04T06:05:25.700Z,1017.95
2018-02-04T06:06:34.662Z,1018.01
2018-02-04T06:07:43.356Z,1018.05
2018-02-04T06:08:52.317Z,1018.01
2018-02-04T06:10:01.014Z,1018.08
2018-02-04T06:11:09.976Z,1018.04
2018-02-04T06:12:18.671Z,1018.09
2018-02-04T06:13:27.362Z,1018.14
2018-02-04T06:14:36.589Z,1018.17
2018-02-04T06:15:45.818Z,1018.18
2018-02-04T06:16:54.515Z,1018.24
2018-02-04T06:18:03.473Z,1018.22
2018-02-04T06:19:12.448Z,1018.26
2018-02-04T06:20:21.139Z,1018.3
2018-02-04T06:21:30.359Z,1018.32
2018-02-04T06:22:39.320Z,1018.35
2018-02-04T06:23:48.281Z,1018.33
2018-02-04T06:24:57.240Z,1018.43
2018-02-04T06:26:06.741Z,1018.47
2018-02-04T06:27:15.969Z,1018.52
2018-02-04T06:28:24.662Z,1018.52
2018-02-04T06:29:33.886Z,1018.57
2018-02-04T06:30:43.381Z,1018.64
2018-02-04T06:31:52.076Z,1018.62
2018-02-04T06:33:00.769Z,1018.67
2018-02-04T06:34:09.459Z,1018.69
2018-02-04T06:35:18.158Z,1018.69
2018-02-04T06:36:27.178Z,1018.74
2018-02-04T06:37:35.873Z,1018.79
2018-02-04T06:38:45.102Z,1018.78
2018-02-04T06:39:54.327Z,1018.9
2018-02-04T06:41:03.822Z,1018.86
2018-02-04T06:42:12.782Z,1018.92
2018-02-04T06:43:22.006Z,1018.94
2018-02-04T06:44:30.965Z,1019.03
2018-02-04T06:45:39.660Z,1019.09
2018-02-04T06:46:49.154Z,1019.1
2018-02-04T06:47:57.849Z,1019.12
2018-02-04T06:49:06.546Z,1019.14
2018-02-04T06:50:15.242Z,1019.16
2018-02-04T06:51:24.468Z,1019.22
2018-02-04T06:52:33.160Z,1019.26
2018-02-04T06:53:42.117Z,1019.27
2018-02-04T06:54:51.348Z,1019.28
2018-02-04T06:56:00.304Z,1019.31
2018-02-04T06:57:09.000Z,1019.38
2018-02-04T06:58:17.960Z,1019.37
2018-02-04T06:59:26.927Z,1019.45
2018-02-04T07:00:36.157Z,1019.5
2018-02-04T07:01:44.855Z,1019.54
2018-02-04T07:02:54.356Z,1019.55
2018-02-04T07:04:03.580Z,1019.59
2018-02-04T07:05:12.806Z,1019.65
2018-02-04T07:06:22.030Z,1019.66
2018-02-04T07:07:30.989Z,1019.77
2018-02-04T07:08:39.683Z,1019.76
2018-02-04T07:09:48.378Z,1019.9
2018-02-04T07:10:57.073Z,1019.94
2018-02-04T07:12:06.035Z,1019.97
2018-02-04T07:13:14.730Z,1020
2018-02-04T07:14:23.966Z,1020.01
2018-02-04T07:15:33.458Z,1020.06
2018-02-04T07:16:42.423Z,1020.09
2018-02-04T07:17:51.652Z,1020.1
2018-02-04T07:19:00.348Z,1020.17
2018-02-04T07:20:09.576Z,1020.21
2018-02-04T07:21:18.266Z,1020.23
2018-02-04T07:22:27.228Z,1020.18
2018-02-04T07:23:36.719Z,1020.19
2018-02-04T07:24:45.678Z,1020.21
2018-02-04T07:25:54.639Z,1020.29
2018-02-04T07:27:04.137Z,1020.27
2018-02-04T07:28:12.832Z,1020.31
2018-02-04T07:29:22.056Z,1020.35
2018-02-04T07:30:31.819Z,1020.4
2018-02-04T07:31:40.784Z,1020.39
2018-02-04T07:32:49.744Z,1020.44
2018-02-04T07:33:58.972Z,1020.46
2018-02-04T07:35:08.466Z,1020.5
2018-02-04T07:36:17.966Z,1020.56
2018-02-04T07:37:26.928Z,1020.53
2018-02-04T07:38:36.151Z,1020.6
2018-02-04T07:39:44.845Z,1020.57
2018-02-04T07:40:54.079Z,1020.67
2018-02-04T07:42:03.040Z,1020.67
2018-02-04T07:43:12.276Z,1020.74
2018-02-04T07:44:21.238Z,1020.71
2018-02-04T07:45:29.934Z,1020.79
2018-02-04T07:46:39.163Z,1020.78
2018-02-04T07:47:48.390Z,1020.79
2018-02-04T07:48:57.614Z,1020.83
2018-02-04T07:50:06.575Z,1020.87
2018-02-04T07:51:15.541Z,1020.88
2018-02-04T07:52:24.774Z,1020.86
2018-02-04T07:53:33.476Z,1020.89
2018-02-04T07:54:42.709Z,1020.96
2018-02-04T07:55:51.940Z,1021
2018-02-04T07:57:00.905Z,1021.06
2018-02-04T07:58:10.461Z,1021.15
2018-02-04T07:59:19.704Z,1021.14
2018-02-04T08:00:28.397Z,1021.18
2018-02-04T08:01:37.895Z,1021.2
2018-02-04T08:02:46.855Z,1021.22
2018-02-04T08:03:56.098Z,1021.23
2018-02-04T08:05:04.794Z,1021.24
2018-02-04T08:06:14.017Z,1021.24
2018-02-04T08:07:22.978Z,1021.27
2018-02-04T08:08:31.940Z,1021.28
2018-02-04T08:09:41.178Z,1021.31
2018-02-04T08:10:50.139Z,1021.33
2018-02-04T08:11:59.103Z,1021.34
2018-02-04T08:13:08.067Z,1021.34
2018-02-04T08:14:17.828Z,1021.39
2018-02-04T08:15:26.524Z,1021.38
2018-02-04T08:16:35.484Z,1021.4
2018-02-04T08:17:44.441Z,1021.41
2018-02-04T08:18:53.664Z,1021.43
2018-02-04T08:20:02.894Z,1021.47
2018-02-04T08:21:12.127Z,1021.47
2018-02-04T08:22:20.819Z,1021.51
2018-02-04T08:23:29.783Z,1021.52
2018-02-04T08:24:38.780Z,1021.53
2018-02-04T08:25:48.016Z,1021.52
2018-02-04T08:26:56.713Z,1021.57
2018-02-04T08:28:05.677Z,1021.54
2018-02-04T08:29:14.641Z,1021.59
2018-02-04T08:30:23.340Z,1021.59
2018-02-04T08:31:32.593Z,1021.61
2018-02-04T08:32:41.824Z,1021.63
2018-02-04T08:33:50.522Z,1021.71
2018-02-04T08:35:00.098Z,1021.7
2018-02-04T08:36:09.334Z,1021.72
2018-02-04T08:37:18.293Z,1021.77
2018-02-04T08:38:27.518Z,1021.77
2018-02-04T08:39:36.490Z,1021.83
2018-02-04T08:40:46.249Z,1021.81
2018-02-04T08:41:55.474Z,1021.86
2018-02-04T08:43:04.701Z,1021.86
2018-02-04T08:44:13.661Z,1021.94
2018-02-04T08:45:22.886Z,1021.92
2018-02-04T08:46:31.848Z,1021.92
2018-02-04T08:47:41.334Z,1021.93
2018-02-04T08:48:50.030Z,1021.95
2018-02-04T08:49:59.056Z,1021.95
2018-02-04T08:51:08.287Z,1022
2018-02-04T08:52:17.252Z,1021.98
2018-02-04T08:53:25.948Z,1021.99
2018-02-04T08:54:34.912Z,1022.04
2018-02-04T08:55:43.608Z,1022.03
2018-02-04T08:56:52.299Z,1022.13
2018-02-04T08:58:01.260Z,1022.16
2018-02-04T08:59:10.222Z,1022.19
2018-02-04T09:00:19.450Z,1022.14
2018-02-04T09:01:28.674Z,1022.22
2018-02-04T09:02:37.641Z,1022.21
2018-02-04T09:03:47.141Z,1022.27
2018-02-04T09:04:56.098Z,1022.25
2018-02-04T09:06:05.334Z,1022.23
2018-02-04T09:07:14.302Z,1022.26
2018-02-04T09:08:23.525Z,1022.28
2018-02-04T09:09:32.486Z,1022.29
2018-02-04T09:10:41.186Z,1022.34
2018-02-04T09:11:50.420Z,1022.36
2018-02-04T09:12:59.112Z,1022.36
2018-02-04T09:14:08.350Z,1022.35
2018-02-04T09:15:17.044Z,1022.36
2018-02-04T09:16:25.756Z,1022.29
2018-02-04T09:17:34.570Z,1022.27
2018-02-04T09:18:43.797Z,1022.3
2018-02-04T09:19:52.595Z,1022.33
2018-02-04T09:21:02.413Z,1022.41
2018-02-04T09:22:11.112Z,1022.35
2018-02-04T09:23:20.084Z,1022.37
2018-02-04T09:24:29.052Z,1022.35
2018-02-04T09:25:38.011Z,1022.4
2018-02-04T09:26:47.257Z,1022.44
2018-02-04T09:27:56.265Z,1022.38
2018-02-04T09:29:04.961Z,1022.46
2018-02-04T09:30:14.735Z,1022.48
2018-02-04T09:31:23.977Z,1022.51
2018-02-04T09:32:32.673Z,1022.53
2018-02-04T09:33:41.634Z,1022.53
2018-02-04T09:34:50.863Z,1022.57
2018-02-04T09:36:00.101Z,1022.6
2018-02-04T09:37:09.327Z,1022.62
2018-02-04T09:38:18.293Z,1022.61
2018-02-04T09:39:26.987Z,1022.67
2018-02-04T09:40:35.680Z,1022.66
2018-02-04T09:41:44.377Z,1022.69
2018-02-04T09:42:53.343Z,1022.68
2018-02-04T09:44:02.042Z,1022.75
2018-02-04T09:45:11.004Z,1022.81
2018-02-04T09:46:19.698Z,1022.79
2018-02-04T09:47:28.395Z,1022.82
2018-02-04T09:48:37.624Z,1022.78
2018-02-04T09:49:46.854Z,1022.82
2018-02-04T09:50:55.815Z,1022.86
2018-02-04T09:52:05.045Z,1022.86
2018-02-04T09:53:14.278Z,1022.9
2018-02-04T09:54:22.972Z,1022.91
2018-02-04T09:55:31.668Z,1022.98
2018-02-04T09:56:40.629Z,1023.01
2018-02-04T09:57:49.595Z,1022.98
2018-02-04T09:58:58.558Z,1023
2018-02-04T10:00:07.847Z,1022.98
2018-02-04T10:01:16.806Z,1023.05
2018-02-04T10:02:25.772Z,1023.1
2018-02-04T10:03:34.470Z,1023.11
2018-02-04T10:04:43.697Z,1023.12
2018-02-04T10:05:52.390Z,1023.09
2018-02-04T10:07:01.626Z,1023.14
2018-02-04T10:08:10.330Z,1023.2
2018-02-04T10:09:19.078Z,1023.17
2018-02-04T10:10:27.776Z,1023.2
2018-02-04T10:11:36.560Z,1023.21
2018-02-04T10:12:45.821Z,1023.26
2018-02-04T10:13:54.973Z,1023.23
2018-02-04T10:15:04.376Z,1023.27
2018-02-04T10:16:13.108Z,1023.23
2018-02-04T10:17:22.351Z,1023.27
2018-02-04T10:18:31.051Z,1023.28
2018-02-04T10:19:39.862Z,1023.32
2018-02-04T10:20:49.092Z,1023.32
2018-02-04T10:21:58.432Z,1023.33
2018-02-04T10:23:07.395Z,1023.31
2018-02-04T10:24:16.377Z,1023.33
2018-02-04T10:25:25.387Z,1023.3
2018-02-04T10:26:34.590Z,1023.34
2018-02-04T10:27:43.826Z,1023.36
2018-02-04T10:28:53.322Z,1023.35
2018-02-04T10:30:02.022Z,1023.4
2018-02-04T10:31:11.253Z,1023.35
2018-02-04T10:32:20.211Z,1023.42
2018-02-04T10:33:28.912Z,1023.46
2018-02-04T10:34:37.604Z,1023.46
2018-02-04T10:35:46.578Z,1023.49
2018-02-04T10:36:55.805Z,1023.43
2018-02-04T10:38:04.782Z,1023.47
2018-02-04T10:39:14.008Z,1023.43
2018-02-04T10:40:23.499Z,1023.43
2018-02-04T10:41:32.234Z,1023.49
2018-02-04T10:42:41.475Z,1023.47
2018-02-04T10:43:50.701Z,1023.53
2018-02-04T10:44:59.399Z,1023.53
2018-02-04T10:46:08.095Z,1023.58
2018-02-04T10:47:17.321Z,1023.62
2018-02-04T10:48:26.551Z,1023.63
2018-02-04T10:49:35.513Z,1023.66
2018-02-04T10:50:44.212Z,1023.71
2018-02-04T10:51:53.444Z,1023.7
2018-02-04T10:53:02.445Z,1023.72
2018-02-04T10:54:11.405Z,1023.76
2018-02-04T10:55:20.367Z,1023.79
2018-02-04T10:56:29.060Z,1023.88
2018-02-04T10:57:37.758Z,1023.78
2018-02-04T10:58:46.722Z,1023.82
2018-02-04T10:59:55.420Z,1023.89
2018-02-04T11:01:04.115Z,1023.86
2018-02-04T11:02:12.811Z,1023.9
2018-02-04T11:03:21.507Z,1023.88
2018-02-04T11:04:30.204Z,1023.91
2018-02-04T11:05:39.436Z,1023.92
2018-02-04T11:06:48.932Z,1023.94
2018-02-04T11:07:57.891Z,1023.94
2018-02-04T11:09:07.389Z,1023.95
2018-02-04T11:10:16.081Z,1023.9
2018-02-04T11:11:25.354Z,1024.03
2018-02-04T11:12:34.052Z,1024.01
2018-02-04T11:13:43.547Z,1023.95
2018-02-04T11:14:52.244Z,1023.98
2018-02-04T11:16:01.469Z,1024.03
2018-02-04T11:17:10.166Z,1023.98
2018-02-04T11:18:19.130Z,1024.06
2018-02-04T11:19:28.094Z,1024.01
2018-02-04T11:20:37.060Z,1024.05
2018-02-04T11:21:46.299Z,1024.05
2018-02-04T11:22:54.997Z,1024.13
2018-02-04T11:24:03.956Z,1024.12
2018-02-04T11:25:12.653Z,1024.11
2018-02-04T11:26:21.619Z,1024.13
2018-02-04T11:27:30.576Z,1024.1
2018-02-04T11:28:39.277Z,1024.17
2018-02-04T11:29:48.239Z,1024.18
2018-02-04T11:30:57.204Z,1024.2
2018-02-04T11:32:05.903Z,1024.1
2018-02-04T11:33:15.129Z,1024.08
2018-02-04T11:34:24.359Z,1024.17
2018-02-04T11:35:33.321Z,1024.16
2018-02-04T11:36:42.017Z,1024.18
2018-02-04T11:37:50.978Z,1024.21
2018-02-04T11:39:00.202Z,1024.22
2018-02-04T11:40:09.166Z,1024.2
2018-02-04T11:41:18.407Z,1024.14
2018-02-04T11:42:27.100Z,1024.21
2018-02-04T11:43:36.066Z,1024.19
2018-02-04T11:44:45.026Z,1024.25
2018-02-04T11:45:54.261Z,1024.3
2018-02-04T11:47:03.227Z,1024.3
2018-02-04T11:48:11.926Z,1024.25
2018-02-04T11:49:20.619Z,1024.31
2018-02-04T11:50:29.842Z,1024.32
2018-02-04T11:51:38.806Z,1024.31
2018-02-04T11:52:47.762Z,1024.3
2018-02-04T11:53:57.255Z,1024.3
2018-02-04T11:55:05.947Z,1024.35
2018-02-04T11:56:14.640Z,1024.35
2018-02-04T11:57:23.919Z,1024.37
2018-02-04T11:58:32.610Z,1024.37
2018-02-04T11:59:41.572Z,1024.36
2018-02-04T12:00:50.534Z,1024.34
2018-02-04T12:02:00.294Z,1024.37
2018-02-04T12:03:08.990Z,1024.42
2018-02-04T12:04:17.686Z,1024.44
2018-02-04T12:05:26.657Z,1024.41
2018-02-04T12:06:35.356Z,1024.44
2018-02-04T12:07:44.577Z,1024.34
2018-02-04T12:08:53.273Z,1024.4
2018-02-04T12:10:02.248Z,1024.43
2018-02-04T12:11:11.483Z,1024.42
2018-02-04T12:12:20.446Z,1024.44
2018-02-04T12:13:29.408Z,1024.45
2018-02-04T12:14:38.104Z,1024.41
2018-02-04T12:15:47.067Z,1024.43
2018-02-04T12:16:56.565Z,1024.39
2018-02-04T12:18:06.064Z,1024.42
2018-02-04T12:19:14.756Z,1024.47
2018-02-04T12:20:23.450Z,1024.49
2018-02-04T12:21:32.676Z,1024.48
2018-02-04T12:22:41.640Z,1024.46
2018-02-04T12:23:50.865Z,1024.49
2018-02-04T12:24:59.833Z,1024.49
2018-02-04T12:26:08.799Z,1024.53
2018-02-04T12:27:17.490Z,1024.5
2018-02-04T12:28:26.447Z,1024.49
2018-02-04T12:29:35.408Z,1024.52
2018-02-04T12:30:44.369Z,1024.5
2018-02-04T12:31:53.066Z,1024.51
2018-02-04T12:33:02.027Z,1024.51
2018-02-04T12:34:11.261Z,1024.58
2018-02-04T12:35:19.960Z,1024.5
2018-02-04T12:36:28.654Z,1024.55
2018-02-04T12:37:37.613Z,1024.49
2018-02-04T12:38:46.310Z,1024.54
2018-02-04T12:39:55.536Z,1024.57
2018-02-04T12:41:04.530Z,1024.58
2018-02-04T12:42:13.466Z,1024.56
2018-02-04T12:43:22.426Z,1024.56
2018-02-04T12:44:31.393Z,1024.57
2018-02-04T12:45:40.667Z,1024.6
2018-02-04T12:46:49.630Z,1024.58
2018-02-04T12:47:58.598Z,1024.62
2018-02-04T12:49:07.562Z,1024.69
2018-02-04T12:50:16.524Z,1024.63
2018-02-04T12:51:25.219Z,1024.64
2018-02-04T12:52:34.453Z,1024.68
2018-02-04T12:53:43.149Z,1024.65
2018-02-04T12:54:52.112Z,1024.61
2018-02-04T12:56:00.809Z,1024.63
2018-02-04T12:57:09.505Z,1024.57
2018-02-04T12:58:18.732Z,1024.63
2018-02-04T12:59:27.959Z,1024.61
2018-02-04T13:00:36.655Z,1024.64
2018-02-04T13:01:46.147Z,1024.66
2018-02-04T13:02:55.375Z,1024.72
2018-02-04T13:04:04.338Z,1024.63
2018-02-04T13:05:13.033Z,1024.66
2018-02-04T13:06:21.993Z,1024.68
2018-02-04T13:07:30.687Z,1024.68
2018-02-04T13:08:39.910Z,1024.69
2018-02-04T13:09:48.871Z,1024.68
2018-02-04T13:10:57.562Z,1024.7
2018-02-04T13:12:06.790Z,1024.76
2018-02-04T13:13:15.482Z,1024.74
2018-02-04T13:14:24.713Z,1024.76
2018-02-04T13:15:33.941Z,1024.73
2018-02-04T13:16:43.170Z,1024.75
2018-02-04T13:17:52.395Z,1024.7
2018-02-04T13:19:01.356Z,1024.71
2018-02-04T13:20:10.318Z,1024.78
2018-02-04T13:21:19.548Z,1024.84
2018-02-04T13:22:28.512Z,1024.84
2018-02-04T13:23:37.479Z,1024.83
2018-02-04T13:24:46.454Z,1024.89
2018-02-04T13:25:55.683Z,1024.85
2018-02-04T13:27:04.643Z,1024.85
2018-02-04T13:28:13.604Z,1024.87
2018-02-04T13:29:23.101Z,1024.88
2018-02-04T13:30:32.334Z,1024.91
2018-02-04T13:31:41.298Z,1024.99
2018-02-04T13:32:50.792Z,1025
2018-02-04T13:33:59.487Z,1025
2018-02-04T13:35:08.986Z,1025.01
2018-02-04T13:36:17.945Z,1024.99
2018-02-04T13:37:27.169Z,1024.97
2018-02-04T13:38:36.171Z,1025.01
2018-02-04T13:39:45.374Z,1024.98
2018-02-04T13:40:54.069Z,1025.03
2018-02-04T13:42:03.033Z,1025.05
2018-02-04T13:43:11.998Z,1025.03
2018-02-04T13:44:20.962Z,1025.07
2018-02-04T13:45:29.658Z,1025.05
2018-02-04T13:46:38.355Z,1025.09
2018-02-04T13:47:47.583Z,1025.1
2018-02-04T13:48:56.284Z,1025.04
2018-02-04T13:50:05.245Z,1025.18
2018-02-04T13:51:15.279Z,1025.2
2018-02-04T13:52:24.241Z,1025.16
2018-02-04T13:53:33.781Z,1025.18
2018-02-04T13:54:43.272Z,1025.2
2018-02-04T13:55:52.496Z,1025.21
2018-02-04T13:57:01.993Z,1025.25
2018-02-04T13:58:10.687Z,1025.23